Time;durP1;ratioP1;P1;durP2;ratioP2;P2;SDS_P1;SDS_P2;PMS_P1;PMS_P2;Temp;Humidity;BMP_temperature;BMP_pressure;BME280_temperature;BME280_humidity;BME280_pressure;Samples;Min_cycle;Max_cycle;Signal;HPM_P1;HPM_P2
2021/12/31 00:01:44;;;;;;;7.00;1.92;;;;;;;12.74;100.00;101504.00;5055518;28;20102;-50
2021/12/31 00:04:09;;;;;;;7.78;3.05;;;;;;;12.40;100.00;101453.94;5057241;28;20066;-45
2021/12/31 00:06:36;;;;;;;6.90;2.50;;;;;;;12.40;100.00;101443.38;5035697;28;20060;-54
2021/12/31 00:09:02;;;;;;;8.98;2.42;;;;;;;12.78;100.00;101507.41;5052873;28;20029;-46
2021/12/31 00:11:28;;;;;;;7.57;2.63;;;;;;;12.89;100.00;101508.81;5054535;28;20044;-48
2021/12/31 00:13:53;;;;;;;6.57;2.25;;;;;;;12.57;100.00;101453.47;5052910;28;20098;-49
2021/12/31 00:16:18;;;;;;;9.95;2.50;;;;;;;12.94;100.00;101514.81;5054470;28;20064;-49
2021/12/31 00:18:44;;;;;;;9.05;2.58;;;;;;;12.98;100.00;101512.94;5054574;28;20473;-47
2021/12/31 00:21:09;;;;;;;6.93;2.72;;;;;;;12.66;100.00;101453.19;5054646;28;20025;-45
2021/12/31 00:23:34;;;;;;;7.28;2.55;;;;;;;12.99;100.00;101514.66;5054610;28;20029;-46
2021/12/31 00:26:00;;;;;;;7.25;2.95;;;;;;;12.95;100.00;101505.97;5054583;28;20036;-46
2021/12/31 00:28:25;;;;;;;7.57;3.25;;;;;;;12.84;100.00;101486.94;5054380;28;20039;-52
2021/12/31 00:30:53;;;;;;;10.52;3.35;;;;;;;12.89;100.00;101492.09;5054247;28;20037;-49
2021/12/31 00:33:20;;;;;;;7.45;3.72;;;;;;;12.91;100.00;101506.97;5054635;28;20447;-46
2021/12/31 00:35:46;;;;;;;7.03;3.60;;;;;;;12.87;100.00;101484.19;5054476;28;20052;-47
2021/12/31 00:38:11;;;;;;;10.07;3.47;;;;;;;12.79;100.00;101480.06;5054293;28;20464;-49
2021/12/31 00:40:37;;;;;;;7.55;3.30;;;;;;;12.90;100.00;101486.72;5054210;28;20491;-46
2021/12/31 00:43:03;;;;;;;6.70;3.00;;;;;;;12.86;100.00;101505.38;5053245;28;20033;-46
2021/12/31 00:45:28;;;;;;;7.25;3.13;;;;;;;12.83;100.00;101497.56;5054070;28;20116;-48
2021/12/31 00:47:54;;;;;;;9.27;3.78;;;;;;;12.93;100.00;101501.63;5053150;28;20033;-47
2021/12/31 00:50:20;;;;;;;5.30;2.90;;;;;;;12.93;100.00;101506.91;5052990;28;20068;-51
2021/12/31 00:52:45;;;;;;;10.80;3.30;;;;;;;12.59;100.00;101443.72;5052887;28;20063;-48
2021/12/31 00:55:11;;;;;;;7.53;3.65;;;;;;;12.58;100.00;101462.25;5054127;28;20037;-49
2021/12/31 00:57:37;;;;;;;6.53;3.15;;;;;;;12.82;100.00;101515.19;5036182;28;20084;-50
2021/12/31 01:00:05;;;;;;;6.57;3.60;;;;;;;12.77;100.00;101522.38;5053984;28;20037;-47
2021/12/31 01:02:30;;;;;;;10.40;3.50;;;;;;;12.37;100.00;101450.56;5054159;28;20167;-48
2021/12/31 01:04:56;;;;;;;7.97;3.53;;;;;;;12.38;100.00;101474.25;5059107;28;20144;-50
2021/12/31 01:07:21;;;;;;;7.55;3.50;;;;;;;12.62;100.00;101511.41;5073750;28;20525;-47
2021/12/31 01:09:47;;;;;;;5.28;3.58;;;;;;;12.54;100.00;101493.16;5073533;28;20033;-48
2021/12/31 01:12:13;;;;;;;7.32;3.55;;;;;;;12.61;100.00;101502.63;5073628;28;20383;-48
2021/12/31 01:14:51;;;;;;;10.52;3.35;;;;;;;12.35;100.00;101444.44;5073493;28;20032;-47
2021/12/31 01:17:21;;;;;;;10.00;4.15;;;;;;;12.58;100.00;101496.59;5057441;28;20025;-47
2021/12/31 01:19:47;;;;;;;10.98;3.72;;;;;;;12.65;100.00;101501.63;5055564;28;20032;-50
2021/12/31 01:22:26;;;;;;;6.88;3.90;;;;;;;12.74;100.00;101514.56;5038988;28;20122;-46
2021/12/31 01:24:51;;;;;;;10.00;3.80;;;;;;;12.76;100.00;101510.09;5073258;28;20059;-49
2021/12/31 01:27:16;;;;;;;7.30;3.65;;;;;;;12.56;100.00;101467.56;5073219;28;20060;-47
2021/12/31 01:29:42;;;;;;;7.18;3.83;;;;;;;12.83;100.00;101501.06;5055430;28;20086;-47
2021/12/31 01:32:08;;;;;;;7.03;3.50;;;;;;;12.80;100.00;101509.09;5073403;28;20033;-49
2021/12/31 01:34:34;;;;;;;5.43;3.10;;;;;;;12.82;100.00;101527.50;5055264;28;20032;-47
2021/12/31 01:36:59;;;;;;;6.50;3.17;;;;;;;12.77;100.00;101521.53;5055488;28;20035;-47
2021/12/31 01:39:26;;;;;;;7.30;3.42;;;;;;;12.36;100.00;101451.47;5073170;28;20055;-48
2021/12/31 01:41:52;;;;;;;5.68;3.08;;;;;;;12.50;100.00;101482.72;5073361;28;20075;-49
2021/12/31 01:44:20;;;;;;;7.07;3.50;;;;;;;12.78;100.00;101523.25;5055345;28;20495;-47
2021/12/31 01:46:59;;;;;;;5.70;3.35;;;;;;;12.82;100.00;101525.75;5072945;28;20472;-47
2021/12/31 01:49:28;;;;;;;5.55;3.10;;;;;;;12.82;100.00;101519.59;5055126;28;20040;-48
2021/12/31 01:51:54;;;;;;;7.00;3.00;;;;;;;12.82;100.00;101528.38;5072906;28;20033;-48
2021/12/31 01:54:20;;;;;;;6.68;2.90;;;;;;;12.86;100.00;101513.31;5072882;28;20028;-46
2021/12/31 01:56:45;;;;;;;9.02;3.28;;;;;;;12.86;100.00;101508.03;5073321;28;20529;-49
2021/12/31 01:59:11;;;;;;;6.13;3.10;;;;;;;12.53;100.00;101437.75;5055016;28;20036;-47
2021/12/31 02:01:36;;;;;;;8.70;2.75;;;;;;;12.86;100.00;101498.34;5038337;28;20025;-47
2021/12/31 02:04:02;;;;;;;5.85;3.13;;;;;;;12.52;100.00;101430.75;5054861;28;20077;-49
2021/12/31 02:06:28;;;;;;;6.88;2.97;;;;;;;12.65;100.00;101475.22;5038105;28;20037;-48
2021/12/31 02:08:53;;;;;;;6.20;3.13;;;;;;;12.89;100.00;101503.53;5072606;28;20129;-48
2021/12/31 02:11:20;;;;;;;10.13;2.72;;;;;;;12.81;100.00;101502.88;5054933;28;20036;-52
2021/12/31 02:13:46;;;;;;;4.80;2.45;;;;;;;12.67;100.00;101470.75;5072817;28;20045;-45
2021/12/31 02:16:12;;;;;;;6.93;2.92;;;;;;;12.82;100.00;101496.69;5055201;28;20028;-46
2021/12/31 02:18:37;;;;;;;7.38;2.60;;;;;;;12.84;100.00;101494.84;5054700;28;20032;-48
2021/12/31 02:21:07;;;;;;;7.82;3.03;;;;;;;12.95;100.00;101505.97;5054097;28;20119;-47
2021/12/31 02:23:42;;;;;;;9.03;2.83;;;;;;;12.87;100.00;101493.91;5072406;28;20028;-45
2021/12/31 02:26:08;;;;;;;8.10;2.58;;;;;;;12.95;100.00;101510.38;5072621;28;20302;-46
2021/12/31 02:28:34;;;;;;;8.80;3.08;;;;;;;12.96;100.00;101510.31;5054622;28;20032;-45
2021/12/31 02:31:03;;;;;;;7.97;3.22;;;;;;;12.99;100.00;101507.59;5072235;28;20040;-48
2021/12/31 02:33:28;;;;;;;8.40;2.92;;;;;;;12.99;100.00;101519.94;5072526;28;20094;-48
2021/12/31 02:35:54;;;;;;;5.82;3.10;;;;;;;12.66;100.00;101465.53;5072273;28;20028;-50
2021/12/31 02:38:19;;;;;;;7.28;2.90;;;;;;;12.73;100.00;101470.56;5072032;28;20039;-50
2021/12/31 02:40:44;;;;;;;5.65;2.92;;;;;;;12.63;100.00;101450.63;5072244;28;20044;-47
2021/12/31 02:43:10;;;;;;;8.07;3.17;;;;;;;12.95;100.00;101513.91;5072442;28;20029;-48
2021/12/31 02:45:37;;;;;;;7.22;3.00;;;;;;;12.84;100.00;101505.41;5072269;28;20426;-50
2021/12/31 02:48:05;;;;;;;6.82;2.70;;;;;;;12.81;100.00;101502.03;5072218;28;20060;-47
2021/12/31 02:50:34;;;;;;;10.02;3.10;;;;;;;12.56;100.00;101458.78;5071942;28;20056;-50
2021/12/31 02:53:01;;;;;;;8.20;3.10;;;;;;;12.93;100.00;101520.13;5072347;28;20021;-48
2021/12/31 02:55:30;;;;;;;8.20;2.47;;;;;;;12.60;100.00;101449.84;5054714;28;20055;-50
2021/12/31 02:57:56;;;;;;;4.35;2.58;;;;;;;12.90;100.00;101530.81;5054478;28;20041;-48
2021/12/31 03:00:21;;;;;;;11.35;3.55;;;;;;;12.84;100.00;101496.66;5054144;28;20574;-47
2021/12/31 03:02:47;;;;;;;8.48;3.00;;;;;;;12.82;100.00;101503.75;5072007;28;20068;-49
2021/12/31 03:05:13;;;;;;;6.22;2.72;;;;;;;12.86;100.00;101493.03;5053870;28;20069;-46
2021/12/31 03:07:40;;;;;;;4.95;2.90;;;;;;;12.90;100.00;101512.31;5071880;28;20025;-45
2021/12/31 03:10:06;;;;;;;5.47;2.70;;;;;;;12.56;100.00;101437.66;5053881;28;20043;-46
2021/12/31 03:12:31;;;;;;;4.50;2.47;;;;;;;12.88;100.00;101492.97;5054041;28;20036;-47
2021/12/31 03:14:57;;;;;;;5.28;2.80;;;;;;;12.88;100.00;101496.50;5053940;28;20037;-46
2021/12/31 03:17:23;;;;;;;9.18;3.08;;;;;;;12.91;100.00;101484.97;5053964;28;20452;-47
2021/12/31 03:19:49;;;;;;;8.77;3.00;;;;;;;12.62;100.00;101434.81;5072170;28;20079;-45
2021/12/31 03:22:15;;;;;;;6.30;2.50;;;;;;;12.75;100.00;101452.91;5072099;28;20036;-47
2021/12/31 03:24:41;;;;;;;6.20;3.30;;;;;;;12.66;100.00;101449.66;5072077;28;20477;-48
2021/12/31 03:27:06;;;;;;;9.95;3.33;;;;;;;12.86;100.00;101486.88;5071949;28;20036;-46
2021/12/31 03:29:31;;;;;;;7.18;2.60;;;;;;;12.82;100.00;101478.19;5071921;28;20056;-48
2021/12/31 03:31:57;;;;;;;7.10;2.55;;;;;;;12.87;100.00;101486.81;5071840;28;20056;-47
2021/12/31 03:34:23;;;;;;;4.13;2.40;;;;;;;12.94;100.00;101491.03;5075623;28;20078;-46
2021/12/31 03:36:48;;;;;;;8.10;2.80;;;;;;;12.97;100.00;101501.50;5075783;28;20036;-49
2021/12/31 03:39:13;;;;;;;7.15;2.53;;;;;;;12.96;100.00;101490.97;5075617;28;20035;-47
2021/12/31 03:41:39;;;;;;;11.88;2.90;;;;;;;12.63;100.00;101434.78;5075957;28;20032;-47
2021/12/31 03:44:05;;;;;;;6.28;2.60;;;;;;;12.89;100.00;101476.22;5075494;28;20032;-46
2021/12/31 03:46:30;;;;;;;8.98;2.60;;;;;;;12.93;100.00;101489.28;5075383;28;20404;-45
2021/12/31 03:48:56;;;;;;;6.85;2.50;;;;;;;12.84;100.00;101479.00;5075289;28;20032;-46
2021/12/31 03:51:22;;;;;;;6.88;2.97;;;;;;;12.94;100.00;101491.03;5057364;28;20064;-47
2021/12/31 03:53:47;;;;;;;7.00;2.70;;;;;;;13.01;100.00;101490.81;5075353;28;20060;-47
2021/12/31 03:56:12;;;;;;;4.45;2.35;;;;;;;12.95;100.00;101484.84;5075303;28;20499;-47
2021/12/31 03:58:38;;;;;;;6.20;2.22;;;;;;;12.75;100.00;101449.38;5075203;28;20028;-47
2021/12/31 04:01:03;;;;;;;6.78;2.28;;;;;;;12.94;100.00;101471.66;5075147;28;20430;-52
2021/12/31 04:03:29;;;;;;;8.25;2.22;;;;;;;13.09;100.00;101494.13;5057125;28;20442;-46
2021/12/31 04:05:55;;;;;;;5.93;1.90;;;;;;;13.10;100.00;101502.00;5075112;28;20058;-46
2021/12/31 04:08:20;;;;;;;5.25;2.20;;;;;;;13.11;100.00;101501.06;5040615;28;20040;-47
2021/12/31 04:10:46;;;;;;;4.32;1.92;;;;;;;13.12;100.00;101509.88;5074780;28;20047;-48
2021/12/31 04:13:11;;;;;;;5.97;2.20;;;;;;;12.92;100.00;101465.56;5057038;28;20032;-48
2021/12/31 04:15:37;;;;;;;8.00;2.38;;;;;;;12.98;100.00;101479.44;5074716;28;20491;-48
2021/12/31 04:18:02;;;;;;;4.85;1.77;;;;;;;12.72;100.00;101429.22;5074763;28;20131;-48
2021/12/31 04:20:40;;;;;;;5.32;2.08;;;;;;;12.79;100.00;101435.16;5056995;28;20032;-50
2021/12/31 04:23:52;;;;;;;5.32;2.20;;;;;;;12.84;100.00;101436.72;5058779;28;20112;-46
2021/12/31 04:25:57;;;;;;;5.63;2.00;;;;;;;13.10;100.00;101486.16;5066198;28;20036;-47
2021/12/31 04:28:23;;;;;;;4.05;1.92;;;;;;;13.03;100.00;101462.56;5074525;28;20028;-48
2021/12/31 04:30:48;;;;;;;7.78;2.45;;;;;;;13.04;100.00;101475.75;5074748;28;20391;-47
2021/12/31 04:33:14;;;;;;;4.18;1.70;;;;;;;12.96;100.00;101472.47;5074733;28;20119;-48
2021/12/31 04:35:39;;;;;;;6.13;2.13;;;;;;;12.89;100.00;101477.09;5056715;28;20029;-48
2021/12/31 04:38:05;;;;;;;4.72;2.10;;;;;;;12.77;100.00;101464.28;5074525;28;20554;-48
2021/12/31 04:40:30;;;;;;;8.60;2.20;;;;;;;12.33;100.00;101402.28;5074435;28;20029;-46
2021/12/31 04:42:55;;;;;;;5.07;1.85;;;;;;;12.32;100.00;101404.94;5056338;28;20052;-47
2021/12/31 04:45:21;;;;;;;6.10;2.30;;;;;;;12.48;100.00;101431.75;5073969;28;20476;-52
2021/12/31 04:47:46;;;;;;;6.68;2.20;;;;;;;12.53;100.00;101446.53;5074422;28;20060;-49
2021/12/31 04:50:12;;;;;;;5.18;2.10;;;;;;;12.57;100.00;101434.09;5074145;28;20055;-47
2021/12/31 04:52:38;;;;;;;4.53;2.00;;;;;;;12.42;100.00;101411.69;5074275;28;20412;-47
2021/12/31 04:55:04;;;;;;;5.95;2.00;;;;;;;12.44;100.00;101404.56;5074117;28;20059;-48
2021/12/31 04:57:29;;;;;;;5.50;2.05;;;;;;;12.58;100.00;101422.66;5056212;28;20426;-47
2021/12/31 04:59:55;;;;;;;6.63;1.90;;;;;;;12.30;100.00;101372.47;5074283;28;20090;-48
2021/12/31 05:02:20;;;;;;;6.05;2.30;;;;;;;12.62;100.00;101429.53;5074048;28;20028;-46
2021/12/31 05:04:45;;;;;;;5.97;2.00;;;;;;;12.52;100.00;101413.09;5055917;28;20039;-49
2021/12/31 05:07:11;;;;;;;4.15;2.05;;;;;;;12.57;100.00;101420.91;5052432;28;20135;-46
2021/12/31 05:09:36;;;;;;;4.65;1.80;;;;;;;12.34;100.00;101382.88;5052481;28;20037;-48
2021/12/31 05:12:04;;;;;;;5.43;1.88;;;;;;;12.24;100.00;101375.28;5053520;28;20140;-46
2021/12/31 05:14:29;;;;;;;6.97;2.05;;;;;;;12.59;100.00;101442.84;5053894;28;20025;-49
2021/12/31 05:16:55;;;;;;;5.43;2.30;;;;;;;12.45;100.00;101442.41;5053776;28;20063;-47
2021/12/31 05:19:20;;;;;;;4.13;1.88;;;;;;;12.47;100.00;101452.00;5052338;28;20036;-48
2021/12/31 05:21:45;;;;;;;5.32;1.90;;;;;;;12.28;100.00;101425.31;5053707;28;20381;-48
2021/12/31 05:24:14;;;;;;;2.58;1.50;;;;;;;12.49;100.00;101458.13;5053522;28;20116;-46
2021/12/31 05:26:39;;;;;;;6.43;2.28;;;;;;;12.34;100.00;101438.31;5053369;28;20029;-48
2021/12/31 05:29:04;;;;;;;8.02;1.60;;;;;;;12.50;100.00;101451.03;5052210;28;20087;-47
2021/12/31 05:31:30;;;;;;;4.28;2.03;;;;;;;12.47;100.00;101467.84;5051906;28;20044;-48
2021/12/31 05:33:55;;;;;;;3.10;1.92;;;;;;;12.08;100.00;101410.97;5052472;28;20043;-48
2021/12/31 05:36:20;;;;;;;5.38;2.00;;;;;;;12.10;100.00;101399.47;5052237;28;20472;-51
2021/12/31 05:38:46;;;;;;;3.42;2.03;;;;;;;12.16;100.00;101416.88;5053537;28;20041;-50
2021/12/31 05:41:12;;;;;;;4.32;1.98;;;;;;;12.41;100.00;101454.81;5053170;28;20037;-47
2021/12/31 05:43:38;;;;;;;5.10;2.03;;;;;;;12.07;100.00;101403.97;5053416;28;20025;-47
2021/12/31 05:46:03;;;;;;;6.75;2.10;;;;;;;11.96;100.00;101379.66;5052077;28;20543;-52
2021/12/31 05:48:29;;;;;;;5.35;1.90;;;;;;;12.26;100.00;101424.47;5053221;28;20412;-48
2021/12/31 05:50:55;;;;;;;5.63;2.03;;;;;;;12.29;100.00;101426.16;5053003;28;20041;-48
2021/12/31 05:53:20;;;;;;;6.55;2.05;;;;;;;12.39;100.00;101456.66;5053091;28;20507;-47
2021/12/31 05:55:45;;;;;;;4.85;2.63;;;;;;;12.09;100.00;101400.34;5052322;28;20040;-50
2021/12/31 05:58:11;;;;;;;4.90;2.08;;;;;;;12.45;100.00;101467.03;5051543;28;20040;-48
2021/12/31 06:00:36;;;;;;;2.60;2.00;;;;;;;12.46;100.00;101457.34;5052943;28;20454;-50
2021/12/31 06:03:01;;;;;;;4.47;2.17;;;;;;;12.07;100.00;101390.75;5052733;28;20120;-49
2021/12/31 06:05:27;;;;;;;4.63;2.17;;;;;;;12.41;100.00;101447.78;5058422;28;20060;-48
2021/12/31 06:07:55;;;;;;;4.75;2.25;;;;;;;12.02;100.00;101380.34;5072837;28;20119;-47
2021/12/31 06:10:22;;;;;;;4.57;2.28;;;;;;;12.34;100.00;101448.88;5072557;28;20472;-47
2021/12/31 06:12:49;;;;;;;7.03;2.67;;;;;;;12.19;100.00;101425.59;5072782;28;20031;-50
2021/12/31 06:15:16;;;;;;;7.63;2.25;;;;;;;12.16;100.00;101432.72;5072680;28;20065;-47
2021/12/31 06:17:42;;;;;;;4.45;2.20;;;;;;;12.14;100.00;101426.63;5072757;28;20033;-50
2021/12/31 06:20:09;;;;;;;4.65;2.40;;;;;;;12.09;100.00;101404.75;5072621;28;20085;-47
2021/12/31 06:22:35;;;;;;;6.03;2.55;;;;;;;12.10;100.00;101412.66;5072302;28;20028;-47
2021/12/31 06:25:00;;;;;;;5.57;2.42;;;;;;;12.02;100.00;101398.84;5054682;28;20037;-45
2021/12/31 06:27:25;;;;;;;3.65;1.98;;;;;;;12.01;100.00;101401.50;5072689;28;20119;-48
2021/12/31 06:29:51;;;;;;;4.70;2.28;;;;;;;11.93;100.00;101391.19;5072673;28;20472;-50
2021/12/31 06:32:16;;;;;;;6.00;2.25;;;;;;;11.69;100.00;101349.66;5072548;28;20396;-48
2021/12/31 06:34:41;;;;;;;5.82;2.13;;;;;;;11.95;100.00;101399.03;5072496;28;20475;-51
2021/12/31 06:37:07;;;;;;;5.13;2.40;;;;;;;11.92;100.00;101399.13;5054501;28;20487;-48
2021/12/31 06:39:35;;;;;;;5.53;2.40;;;;;;;11.91;100.00;101394.78;5054328;28;20060;-46
2021/12/31 06:42:03;;;;;;;5.40;2.28;;;;;;;11.89;100.00;101404.47;5072494;28;20392;-47
2021/12/31 06:44:31;;;;;;;3.30;2.00;;;;;;;11.52;100.00;101339.59;5054970;28;20050;-47
2021/12/31 06:46:57;;;;;;;7.68;2.08;;;;;;;11.91;100.00;101400.88;5072385;28;20035;-48
2021/12/31 06:49:22;;;;;;;4.50;2.35;;;;;;;11.72;100.00;101378.59;5072201;28;20036;-50
2021/12/31 06:51:47;;;;;;;4.45;2.28;;;;;;;11.82;100.00;101391.47;5053879;28;20124;-50
2021/12/31 06:54:12;;;;;;;5.35;2.00;;;;;;;11.94;100.00;101410.53;5071967;28;20119;-48
2021/12/31 06:56:38;;;;;;;3.63;1.90;;;;;;;11.93;100.00;101414.94;5072292;28;20115;-46
2021/12/31 06:59:03;;;;;;;5.30;2.67;;;;;;;11.65;100.00;101377.00;5072059;28;20037;-47
2021/12/31 07:01:28;;;;;;;19.90;12.68;;;;;;;11.93;100.00;101427.25;5054027;28;20043;-47
2021/12/31 07:03:54;;;;;;;5.53;2.88;;;;;;;11.93;100.00;101433.38;5071998;28;20041;-47
2021/12/31 07:06:19;;;;;;;5.53;3.45;;;;;;;11.86;100.00;101426.53;5072217;28;20056;-52
2021/12/31 07:08:45;;;;;;;4.82;2.60;;;;;;;11.89;100.00;101433.50;5056562;28;20028;-47
2021/12/31 07:11:12;;;;;;;3.92;2.20;;;;;;;11.72;100.00;101423.44;5075979;28;20051;-47
2021/12/31 07:13:37;;;;;;;5.75;2.67;;;;;;;11.89;100.00;101431.75;5058013;28;20028;-50
2021/12/31 07:16:03;;;;;;;6.50;2.92;;;;;;;11.90;100.00;101435.25;5076078;28;20040;-47
2021/12/31 07:18:29;;;;;;;7.07;2.65;;;;;;;11.81;100.00;101423.19;5075821;28;20029;-48
2021/12/31 07:20:54;;;;;;;5.00;2.65;;;;;;;11.64;100.00;101413.06;5075738;28;20036;-47
2021/12/31 07:23:21;;;;;;;6.88;2.88;;;;;;;11.81;100.00;101418.78;5075587;28;20071;-50
2021/12/31 07:25:47;;;;;;;5.63;2.60;;;;;;;11.88;100.00;101434.44;5058096;28;20016;-47
2021/12/31 07:28:13;;;;;;;5.22;2.60;;;;;;;11.56;100.00;101375.47;5075818;28;20025;-45
2021/12/31 07:30:39;;;;;;;5.35;2.60;;;;;;;11.85;100.00;101425.66;5057790;28;20106;-47
2021/12/31 07:33:05;;;;;;;5.28;2.45;;;;;;;11.63;100.00;101377.06;5057884;28;20531;-47
2021/12/31 07:35:31;;;;;;;3.15;2.47;;;;;;;11.93;100.00;101438.66;5057653;28;20028;-46
2021/12/31 07:37:58;;;;;;;5.10;2.72;;;;;;;11.98;100.00;101425.34;5075371;28;20468;-47
2021/12/31 07:40:39;;;;;;;6.10;2.53;;;;;;;11.95;100.00;101430.69;5075137;28;20032;-47
2021/12/31 07:43:06;;;;;;;5.90;2.50;;;;;;;11.93;100.00;101427.25;5075528;28;20458;-47
2021/12/31 07:45:31;;;;;;;8.15;2.70;;;;;;;11.96;100.00;101421.88;5075370;28;20032;-46
2021/12/31 07:47:57;;;;;;;4.85;2.63;;;;;;;11.95;100.00;101428.06;5075327;28;20039;-48
2021/12/31 07:50:22;;;;;;;5.18;2.28;;;;;;;11.95;100.00;101428.06;5057202;28;20036;-50
2021/12/31 07:52:47;;;;;;;4.95;2.55;;;;;;;11.97;100.00;101435.00;5074967;28;20471;-48
2021/12/31 07:55:13;;;;;;;5.93;2.60;;;;;;;11.95;100.00;101451.78;5057101;28;20059;-48
2021/12/31 07:57:38;;;;;;;6.32;2.80;;;;;;;11.95;100.00;101438.59;5057571;28;20058;-45
2021/12/31 08:00:05;;;;;;;5.90;2.45;;;;;;;11.92;100.00;101438.69;5075344;28;20037;-48
2021/12/31 08:02:31;;;;;;;5.43;2.33;;;;;;;11.56;100.00;101372.84;5075033;28;20028;-48
2021/12/31 08:04:56;;;;;;;5.82;2.83;;;;;;;11.82;100.00;101433.66;5056811;28;20028;-48
2021/12/31 08:07:21;;;;;;;4.80;2.40;;;;;;;11.87;100.00;101452.03;5075192;28;20476;-45
2021/12/31 08:09:47;;;;;;;5.68;2.92;;;;;;;11.85;100.00;101446.78;5074945;28;20407;-47
2021/12/31 08:12:12;;;;;;;5.35;3.25;;;;;;;11.52;100.00;101394.09;5074963;28;20171;-49
2021/12/31 08:14:37;;;;;;;4.10;2.45;;;;;;;11.84;100.00;101462.66;5074509;28;20116;-48
2021/12/31 08:17:03;;;;;;;4.22;2.53;;;;;;;11.55;100.00;101417.72;5074661;28;20029;-47
2021/12/31 08:19:28;;;;;;;5.05;2.63;;;;;;;11.84;100.00;101458.25;5055733;28;20436;-49
2021/12/31 08:21:54;;;;;;;7.07;2.50;;;;;;;11.81;100.00;101460.97;5074844;28;20035;-48
2021/12/31 08:24:19;;;;;;;5.15;2.65;;;;;;;11.49;100.00;101402.94;5056822;28;20041;-46
2021/12/31 08:26:44;;;;;;;5.63;2.72;;;;;;;11.84;100.00;101457.38;5056708;28;20036;-49
2021/12/31 08:29:12;;;;;;;4.82;2.50;;;;;;;11.53;100.00;101393.19;5056626;28;20502;-51
2021/12/31 08:31:39;;;;;;;5.20;2.70;;;;;;;11.60;100.00;101395.59;5074328;28;20063;-50
2021/12/31 08:34:06;;;;;;;6.05;3.00;;;;;;;11.89;100.00;101457.25;5056523;28;20028;-48
2021/12/31 08:36:32;;;;;;;5.30;2.70;;;;;;;11.88;100.00;101447.63;5056603;28;20491;-52
2021/12/31 08:38:58;;;;;;;5.75;2.78;;;;;;;11.84;100.00;101458.25;5056632;28;20043;-47
2021/12/31 08:41:23;;;;;;;4.40;2.60;;;;;;;11.83;100.00;101453.00;5074062;28;20078;-50
2021/12/31 08:43:49;;;;;;;5.63;2.60;;;;;;;11.71;100.00;101430.47;5074076;28;20032;-51
2021/12/31 08:46:14;;;;;;;3.88;2.92;;;;;;;11.60;100.00;101414.06;5073984;28;20032;-47
2021/12/31 08:48:39;;;;;;;3.72;2.67;;;;;;;11.79;100.00;101454.03;5074030;28;20033;-47
2021/12/31 08:51:05;;;;;;;4.97;2.88;;;;;;;11.59;100.00;101417.59;5074068;28;20388;-48
2021/12/31 08:53:30;;;;;;;6.15;2.60;;;;;;;11.53;100.00;101387.91;5073942;28;20036;-47
2021/12/31 08:55:55;;;;;;;5.07;2.55;;;;;;;11.90;100.00;101448.44;5074026;28;20035;-49
2021/12/31 08:58:21;;;;;;;5.47;2.60;;;;;;;11.91;100.00;101437.81;5073826;28;20033;-45
2021/12/31 09:00:46;;;;;;;7.00;2.50;;;;;;;11.67;100.00;101397.19;5073877;28;20425;-47
2021/12/31 09:03:12;;;;;;;4.57;3.22;;;;;;;11.77;100.00;101422.41;5073931;28;20479;-47
2021/12/31 09:05:38;;;;;;;5.43;2.70;;;;;;;12.03;100.00;101448.03;5073612;28;20193;-50
2021/12/31 09:08:03;;;;;;;4.15;2.55;;;;;;;11.83;100.00;101403.75;5074034;28;20099;-47
2021/12/31 09:10:29;;;;;;;2.88;2.47;;;;;;;11.89;100.00;101418.53;5056091;28;20040;-47
2021/12/31 09:12:54;;;;;;;4.53;2.80;;;;;;;12.13;100.00;101443.38;5073834;28;20170;-52
2021/12/31 09:15:20;;;;;;;4.38;2.65;;;;;;;12.25;100.00;101480.84;5073746;28;20037;-50
2021/12/31 09:17:47;;;;;;;3.13;2.40;;;;;;;12.31;100.00;101478.00;5073604;28;20039;-48
2021/12/31 09:20:13;;;;;;;4.90;2.50;;;;;;;12.34;100.00;101495.53;5073467;28;20036;-46
2021/12/31 09:22:38;;;;;;;4.47;2.50;;;;;;;12.04;100.00;101456.81;5073531;28;20043;-47
2021/12/31 09:25:04;;;;;;;5.22;2.83;;;;;;;12.29;100.00;101524.69;5073323;28;20034;-47
2021/12/31 09:27:30;;;;;;;5.53;2.58;;;;;;;12.27;100.00;101493.97;5073329;28;20039;-47
2021/12/31 09:29:55;;;;;;;5.05;3.20;;;;;;;11.87;100.00;101438.84;5049484;28;20112;-47
2021/12/31 09:32:21;;;;;;;5.35;2.40;;;;;;;12.27;100.00;101481.66;5073048;28;20028;-50
2021/12/31 09:34:48;;;;;;;4.75;2.40;;;;;;;12.28;100.00;101490.44;5054647;28;20476;-54
2021/12/31 09:37:13;;;;;;;5.40;2.67;;;;;;;11.94;100.00;101444.81;5066648;28;20086;-48
2021/12/31 09:39:39;;;;;;;5.50;2.65;;;;;;;12.29;100.00;101515.91;5064440;28;20475;-47
2021/12/31 09:42:05;;;;;;;6.88;2.67;;;;;;;11.90;100.00;101432.59;5034638;28;20029;-47
2021/12/31 09:44:32;;;;;;;5.00;2.40;;;;;;;11.94;100.00;101464.13;5059967;28;20032;-50
2021/12/31 09:46:57;;;;;;;5.30;2.40;;;;;;;12.34;100.00;101535.13;5072312;28;20056;-47
2021/12/31 09:49:23;;;;;;;6.07;2.65;;;;;;;12.24;100.00;101508.13;5050528;28;20056;-49
2021/12/31 09:51:49;;;;;;;4.47;2.30;;;;;;;12.39;100.00;101512.97;5071145;28;20056;-46
2021/12/31 09:54:17;;;;;;;3.30;2.40;;;;;;;11.98;100.00;101427.97;5052868;28;20043;-49
2021/12/31 09:56:42;;;;;;;5.28;2.60;;;;;;;12.12;100.00;101444.25;5035022;28;20041;-48
2021/12/31 09:59:09;;;;;;;5.10;2.53;;;;;;;12.45;100.00;101482.88;5053939;28;20029;-47
2021/12/31 10:01:52;;;;;;;3.85;2.47;;;;;;;12.16;100.00;101425.66;5063165;28;20067;-49
2021/12/31 10:04:18;;;;;;;4.85;2.55;;;;;;;12.57;100.00;101506.28;5054823;28;20402;-50
2021/12/31 10:07:06;;;;;;;4.53;2.28;;;;;;;12.55;100.00;101516.00;5066800;28;20041;-46
2021/12/31 10:09:31;;;;;;;4.85;2.58;;;;;;;12.57;100.00;101551.19;5053064;28;20060;-48
2021/12/31 10:11:57;;;;;;;4.30;2.25;;;;;;;12.54;100.00;101538.06;5035127;28;20476;-55
2021/12/31 10:14:33;;;;;;;5.72;2.42;;;;;;;12.50;100.00;101520.56;5052391;28;20041;-47
2021/12/31 10:16:59;;;;;;;3.03;2.53;;;;;;;12.18;100.00;101476.63;5069230;28;20032;-50
2021/12/31 10:19:24;;;;;;;6.90;2.50;;;;;;;12.10;100.00;101451.38;5054407;28;20124;-47
2021/12/31 10:21:52;;;;;;;4.15;2.65;;;;;;;12.10;100.00;101439.03;5052903;28;20036;-50
2021/12/31 10:24:26;;;;;;;9.73;3.78;;;;;;;12.26;100.00;101434.16;5071915;28;20117;-52
2021/12/31 10:27:00;;;;;;;7.00;3.47;;;;;;;12.46;100.00;101450.28;5070996;28;20040;-49
2021/12/31 10:29:26;;;;;;;6.68;2.75;;;;;;;12.57;100.00;101437.63;5035548;28;20063;-49
2021/12/31 10:31:53;;;;;;;7.43;2.85;;;;;;;12.58;100.00;101398.88;5038528;28;20086;-47
2021/12/31 10:34:29;;;;;;;6.50;3.33;;;;;;;12.57;100.00;101408.56;5052342;28;20427;-47
2021/12/31 10:37:17;;;;;;;6.90;2.90;;;;;;;12.62;100.00;101421.63;5069106;28;20039;-50
2021/12/31 10:39:43;;;;;;;4.13;3.67;;;;;;;12.68;100.00;101440.78;5072050;28;20036;-47
2021/12/31 10:42:13;;;;;;;4.30;2.92;;;;;;;12.43;100.00;101394.06;5037641;28;20036;-48
2021/12/31 10:44:48;;;;;;;5.85;3.42;;;;;;;12.85;100.00;101470.16;5051160;28;20120;-51
2021/12/31 10:47:21;;;;;;;4.45;2.55;;;;;;;13.00;100.00;101468.81;5034374;28;20480;-49
2021/12/31 10:49:55;;;;;;;7.60;3.13;;;;;;;13.19;100.00;101477.06;5065226;28;20483;-48
2021/12/31 10:52:33;;;;;;;4.10;2.72;;;;;;;13.23;100.00;101471.59;5064625;28;20039;-48
2021/12/31 10:55:03;;;;;;;6.35;2.90;;;;;;;13.03;100.00;101439.66;5066668;28;20082;-47
2021/12/31 10:57:38;;;;;;;5.65;3.05;;;;;;;13.05;100.00;101423.75;5053539;28;20036;-49
2021/12/31 11:00:08;;;;;;;5.80;3.08;;;;;;;13.20;100.00;101445.25;5065536;28;20031;-48
2021/12/31 11:02:34;;;;;;;4.75;2.92;;;;;;;13.41;100.00;101494.78;5052517;28;20060;-50
2021/12/31 11:04:59;;;;;;;6.50;3.35;;;;;;;13.40;100.00;101494.81;5052090;28;20036;-45
2021/12/31 11:07:27;;;;;;;9.73;4.00;;;;;;;13.32;100.00;101500.38;5051596;28;20052;-48
2021/12/31 11:09:52;;;;;;;8.23;3.00;;;;;;;13.23;100.00;101495.41;5043296;28;20090;-48
2021/12/31 11:12:17;;;;;;;10.32;3.42;;;;;;;13.17;100.00;101500.00;5037138;28;20032;-48
2021/12/31 11:14:43;;;;;;;7.85;3.83;;;;;;;13.02;100.00;101485.47;5053689;28;20473;-51